Date,TemperatureHighF,TemperatureAvgF,TemperatureLowF,DewpointHighF,DewpointAvgF,DewpointLowF,HumidityHigh,HumidityAvg,HumidityLow,PressureMaxIn,PressureMinIn,WindSpeedMaxMPH,WindSpeedAvgMPH,GustSpeedMaxMPH,PrecipitationSumIn
2013-5-1,74,58,40,47,41,31,95,61,21,30.46,30.29,6,1,12,0.03
2013-5-2,79,60,39,49,40,33,90,56,23,30.48,30.30,3,1,8,0.00
2013-5-3,70,60,47,47,37,31,75,44,24,30.45,30.31,7,2,15,0.00
2013-5-4,74,57,38,48,42,36,92,61,31,30.36,30.19,4,1,12,0.00
2013-5-5,74,58,40,43,39,27,91,55,18,30.29,30.14,7,1,16,0.00
2013-5-6,76,57,36,43,37,28,91,55,19,30.26,30.08,3,1,9,0.00
2013-5-7,79,61,42,54,44,39,89,59,25,30.19,30.04,5,1,10,0.00
2013-5-8,70,59,49,61,54,46,93,83,59,30.14,29.98,6,1,16,0.15
2013-5-9,69,60,49,57,53,48,96,79,50,30.00,29.89,4,0,8,0.07
2013-5-10,75,61,48,59,51,-100,95,76,48,30.01,29.83,3,0,10,0.03
2013-5-11,63,58,50,61,54,45,94,88,75,29.85,29.68,5,1,16,0.24
2013-5-12,54,46,37,46,36,-100,95,72,37,29.91,29.70,6,2,20,0.05
2013-5-13,48,40,31,33,30,25,90,70,41,30.14,29.90,7,2,16,0.08
2013-5-14,55,41,26,36,30,25,95,68,37,30.18,30.06,4,1,14,0.01
2013-5-15,62,46,29,52,39,26,93,78,55,30.09,29.64,5,1,14,0.15
2013-5-16,74,55,38,45,21,-100,94,52,27,29.93,29.73,9,2,25,0.13
2013-5-17,68,55,42,42,35,-100,82,56,30,30.26,29.91,5,1,14,0.00
2013-5-18,72,56,37,48,42,35,92,64,33,30.33,30.21,3,0,7,0.00
2013-5-19,58,53,44,55,50,42,94,90,84,30.29,30.16,1,0,5,0.05
2013-5-20,81,64,55,65,58,53,95,82,56,30.16,29.96,3,0,7,0.01
2013-5-21,86,69,58,69,63,56,96,83,51,29.96,29.78,6,0,18,1.45
2013-5-22,81,70,62,71,66,61,96,87,65,29.85,29.75,3,0,11,1.34
2013-5-23,76,67,60,66,62,59,95,86,67,29.81,29.70,4,0,14,0.13
2013-5-24,60,47,41,59,45,39,96,91,84,30.09,29.69,6,2,18,0.55
2013-5-25,44,42,41,41,40,38,93,90,87,30.08,30.02,6,2,20,0.44
2013-5-26,58,48,40,43,39,36,91,75,47,30.17,29.97,8,3,22,0.06
2013-5-27,67,52,34,43,37,31,96,62,27,30.26,30.16,6,1,17,0.00
2013-5-28,69,55,37,54,44,35,93,71,45,30.24,30.10,3,1,8,0.00
2013-5-29,80,63,55,70,59,52,96,89,67,30.12,29.91,3,0,8,0.56
2013-5-30,84,72,55,70,64,54,97,79,55,30.13,30.06,4,1,14,0.03
2013-5-31,91,75,59,72,65,58,95,74,43,30.12,29.92,3,0,7,0.00